createdAt,value
2022-10-05T00:00:59.869Z,100.00
2022-10-05T00:03:30.498Z,100.00
2022-10-05T00:05:57.467Z,100.00
2022-10-05T00:08:25.129Z,100.00
2022-10-05T00:10:51.870Z,100.00
2022-10-05T00:13:23.584Z,100.00
2022-10-05T00:15:50.440Z,100.00
2022-10-05T00:18:18.879Z,100.00
2022-10-05T00:20:46.279Z,100.00
2022-10-05T00:23:16.303Z,100.00
2022-10-05T00:25:42.833Z,100.00
2022-10-05T00:28:22.604Z,100.00
2022-10-05T00:30:49.164Z,100.00
2022-10-05T00:33:15.540Z,100.00
2022-10-05T00:35:42.095Z,100.00
2022-10-05T00:38:08.508Z,100.00
2022-10-05T00:41:01.397Z,100.00
2022-10-05T00:43:27.829Z,100.00
2022-10-05T00:45:57.242Z,100.00
2022-10-05T00:48:23.689Z,100.00
2022-10-05T00:50:50.094Z,100.00
2022-10-05T00:53:28.543Z,100.00
2022-10-05T00:55:54.907Z,100.00
2022-10-05T00:58:21.336Z,100.00
2022-10-05T01:01:00.445Z,100.00
2022-10-05T01:03:45.478Z,100.00
2022-10-05T01:06:25.986Z,100.00
2022-10-05T01:09:03.405Z,100.00
2022-10-05T01:11:38.845Z,100.00
2022-10-05T01:14:05.271Z,100.00
2022-10-05T01:16:53.205Z,100.00
2022-10-05T01:19:25.909Z,100.00
2022-10-05T01:21:55.046Z,100.00
2022-10-05T01:24:40.044Z,100.00
2022-10-05T01:27:09.553Z,100.00
2022-10-05T01:29:45.251Z,100.00
2022-10-05T01:32:14.486Z,100.00
2022-10-05T01:34:42.375Z,100.00
2022-10-05T01:37:23.938Z,100.00
2022-10-05T01:39:56.445Z,100.00
2022-10-05T01:42:41.649Z,100.00
2022-10-05T01:45:11.161Z,100.00
2022-10-05T01:47:40.595Z,100.00
2022-10-05T01:50:22.237Z,100.00
2022-10-05T01:52:51.650Z,100.00
2022-10-05T01:55:28.032Z,100.00
2022-10-05T01:57:57.522Z,100.00
2022-10-05T02:00:23.996Z,100.00
2022-10-05T02:03:03.151Z,100.00
2022-10-05T02:05:33.898Z,100.00
2022-10-05T02:08:01.935Z,100.00
2022-10-05T02:10:35.132Z,100.00
2022-10-05T02:13:06.822Z,100.00
2022-10-05T02:15:38.896Z,100.00
2022-10-05T02:18:10.372Z,100.00
2022-10-05T02:20:38.325Z,100.00
2022-10-05T02:23:07.835Z,100.00
2022-10-05T02:25:36.481Z,100.00
2022-10-05T02:28:09.910Z,100.00
2022-10-05T02:30:40.048Z,100.00
2022-10-05T02:33:35.606Z,100.00
2022-10-05T02:36:07.664Z,100.00
2022-10-05T02:38:47.437Z,100.00
2022-10-05T02:41:13.813Z,100.00
2022-10-05T02:44:00.519Z,100.00
2022-10-05T02:46:36.772Z,100.00
2022-10-05T02:49:03.230Z,100.00
2022-10-05T02:51:35.575Z,100.00
2022-10-05T02:54:20.815Z,100.00
2022-10-05T02:57:13.548Z,100.00
2022-10-05T02:59:52.093Z,100.00
2022-10-05T03:02:24.032Z,100.00
2022-10-05T03:04:56.433Z,100.00
2022-10-05T03:08:02.260Z,100.00
2022-10-05T03:10:33.688Z,100.00
2022-10-05T03:13:00.068Z,100.00
2022-10-05T03:15:26.480Z,100.00
2022-10-05T03:18:06.903Z,100.00
2022-10-05T03:20:52.151Z,100.00
2022-10-05T03:23:31.915Z,100.00
2022-10-05T03:25:58.351Z,100.00
2022-10-05T03:28:30.665Z,100.00
2022-10-05T03:31:03.168Z,100.00
2022-10-05T03:33:29.555Z,100.00
2022-10-05T03:35:58.949Z,100.00
2022-10-05T03:38:31.528Z,100.00
2022-10-05T03:41:04.468Z,100.00
2022-10-05T03:43:43.909Z,100.00
2022-10-05T03:46:25.964Z,100.00
2022-10-05T03:48:55.496Z,100.00
2022-10-05T03:51:24.715Z,100.00
2022-10-05T03:53:55.468Z,100.00
2022-10-05T03:56:40.163Z,100.00
2022-10-05T03:59:14.741Z,100.00
2022-10-05T04:02:10.428Z,100.00
2022-10-05T04:04:39.835Z,100.00
2022-10-05T04:07:09.600Z,100.00
2022-10-05T04:09:49.904Z,100.00
2022-10-05T04:12:24.162Z,100.00
2022-10-05T04:14:53.801Z,100.00
2022-10-05T04:17:58.701Z,100.00
2022-10-05T04:20:29.362Z,100.00
2022-10-05T04:22:55.712Z,100.00
2022-10-05T04:25:40.039Z,100.00
2022-10-05T04:28:31.926Z,100.00
2022-10-05T04:31:00.507Z,100.00
2022-10-05T04:33:27.352Z,100.00
2022-10-05T04:36:12.627Z,100.00
2022-10-05T04:38:57.248Z,100.00
2022-10-05T04:41:38.102Z,100.00
2022-10-05T04:44:04.575Z,100.00
2022-10-05T04:46:37.007Z,100.00
2022-10-05T04:49:09.300Z,100.00
2022-10-05T04:51:40.384Z,100.00
2022-10-05T04:54:36.341Z,100.00
2022-10-05T04:57:07.111Z,100.00
2022-10-05T04:59:51.819Z,100.00
2022-10-05T05:02:24.430Z,100.00
2022-10-05T05:04:56.963Z,100.00
2022-10-05T05:07:32.698Z,100.00
2022-10-05T05:10:14.319Z,100.00
2022-10-05T05:12:59.855Z,100.00
2022-10-05T05:15:33.376Z,100.00
2022-10-05T05:18:02.591Z,100.00
2022-10-05T05:20:48.014Z,100.00
2022-10-05T05:23:20.578Z,100.00
2022-10-05T05:25:46.978Z,100.00
2022-10-05T05:28:32.338Z,100.00
2022-10-05T05:31:05.557Z,100.00
2022-10-05T05:33:54.819Z,100.00
2022-10-05T05:36:33.950Z,100.00
2022-10-05T05:39:09.137Z,100.00
2022-10-05T05:41:58.232Z,100.00
2022-10-05T05:44:38.888Z,100.00
2022-10-05T05:47:08.997Z,100.00
2022-10-05T05:49:47.068Z,100.00
2022-10-05T05:52:25.546Z,100.00
2022-10-05T05:54:56.887Z,100.00
2022-10-05T05:57:26.430Z,100.00
2022-10-05T06:00:05.841Z,100.00
2022-10-05T06:02:43.211Z,100.00
2022-10-05T06:05:26.044Z,100.00
2022-10-05T06:07:53.921Z,100.00
2022-10-05T06:10:31.419Z,100.00
2022-10-05T06:13:01.833Z,100.00
2022-10-05T06:15:31.531Z,100.00
2022-10-05T06:18:00.424Z,100.00
2022-10-05T06:20:39.053Z,100.00
2022-10-05T06:23:10.437Z,100.00
2022-10-05T06:25:44.772Z,100.00
2022-10-05T06:28:11.438Z,100.00
2022-10-05T06:30:44.880Z,100.00
2022-10-05T06:33:23.184Z,100.00
2022-10-05T06:36:09.615Z,100.00
2022-10-05T06:38:42.039Z,100.00
2022-10-05T06:41:11.546Z,100.00
2022-10-05T06:43:47.048Z,100.00
2022-10-05T06:46:18.401Z,100.00
2022-10-05T06:49:03.544Z,100.00
2022-10-05T06:51:39.157Z,100.00
2022-10-05T06:54:08.613Z,100.00
2022-10-05T06:56:35.155Z,100.00
2022-10-05T06:59:04.750Z,100.00
2022-10-05T07:01:37.499Z,100.00
2022-10-05T07:04:21.425Z,100.00
2022-10-05T07:07:14.843Z,100.00
2022-10-05T07:09:48.766Z,100.00
2022-10-05T07:12:23.958Z,100.00
2022-10-05T07:14:50.360Z,100.00
2022-10-05T07:17:22.339Z,100.00
2022-10-05T07:19:57.864Z,100.00
2022-10-05T07:22:43.249Z,100.00
2022-10-05T07:25:13.261Z,100.00
2022-10-05T07:27:51.070Z,100.00
2022-10-05T07:30:18.924Z,100.00
2022-10-05T07:32:52.768Z,100.00
2022-10-05T07:35:52.940Z,100.00
2022-10-05T07:38:31.072Z,100.00
2022-10-05T07:41:02.359Z,100.00
2022-10-05T07:43:57.847Z,100.00
2022-10-05T07:46:36.686Z,100.00
2022-10-05T07:49:09.642Z,100.00
2022-10-05T07:51:45.154Z,100.00
2022-10-05T07:54:18.113Z,100.00
2022-10-05T07:56:46.318Z,100.00
2022-10-05T07:59:17.161Z,100.00
2022-10-05T08:01:47.429Z,100.00
2022-10-05T08:04:27.511Z,100.00
2022-10-05T08:06:58.175Z,100.00
2022-10-05T08:09:45.752Z,100.00
2022-10-05T08:12:19.722Z,100.00
2022-10-05T08:15:04.989Z,100.00
2022-10-05T08:17:50.304Z,100.00
2022-10-05T08:20:32.020Z,100.00
2022-10-05T08:23:01.658Z,100.00
2022-10-05T08:25:40.216Z,100.00
2022-10-05T08:28:32.979Z,100.00
2022-10-05T08:31:03.402Z,100.00
2022-10-05T08:33:34.802Z,99.85
2022-10-05T08:36:12.948Z,99.92
2022-10-05T08:38:40.288Z,100.00
2022-10-05T08:41:29.226Z,99.76
2022-10-05T08:44:14.454Z,99.40
2022-10-05T08:47:05.435Z,96.78
2022-10-05T08:49:35.150Z,98.04
2022-10-05T08:52:20.293Z,93.81
2022-10-05T08:54:58.927Z,95.32
2022-10-05T08:57:25.338Z,93.27
2022-10-05T09:00:10.758Z,92.05
2022-10-05T09:02:49.393Z,91.01
2022-10-05T09:05:34.666Z,89.90
2022-10-05T09:08:20.550Z,89.19
2022-10-05T09:10:50.063Z,88.25
2022-10-05T09:13:35.322Z,86.33
2022-10-05T09:16:16.769Z,86.73
2022-10-05T09:18:46.359Z,86.09
2022-10-05T09:21:14.602Z,85.89
2022-10-05T09:23:42.873Z,83.10
2022-10-05T09:26:29.466Z,82.22
2022-10-05T09:29:18.943Z,80.02
2022-10-05T09:31:48.665Z,80.56
2022-10-05T09:34:18.207Z,80.30
2022-10-05T09:36:47.870Z,81.23
2022-10-05T09:39:26.429Z,81.17
2022-10-05T09:42:09.655Z,79.64
2022-10-05T09:44:54.789Z,80.62
2022-10-05T09:47:21.212Z,79.94
2022-10-05T09:50:00.284Z,77.32
2022-10-05T09:52:59.258Z,74.15
2022-10-05T09:55:39.278Z,75.96
2022-10-05T09:58:28.357Z,74.76
2022-10-05T10:01:32.809Z,75.32
2022-10-05T10:04:10.290Z,75.00
2022-10-05T10:06:55.687Z,74.48
2022-10-05T10:09:34.041Z,72.47
2022-10-05T10:12:20.601Z,73.67
2022-10-05T10:15:06.416Z,74.40
2022-10-05T10:17:53.947Z,72.40
2022-10-05T10:20:31.025Z,72.05
2022-10-05T10:23:03.262Z,71.97
2022-10-05T10:25:31.765Z,71.64
2022-10-05T10:28:07.533Z,69.17
2022-10-05T10:30:39.904Z,70.67
2022-10-05T10:33:18.612Z,71.23
2022-10-05T10:35:51.231Z,71.72
2022-10-05T10:38:20.365Z,70.37
2022-10-05T10:40:46.838Z,70.44
2022-10-05T10:43:22.491Z,70.11
2022-10-05T10:45:56.770Z,69.46
2022-10-05T10:48:29.100Z,69.93
2022-10-05T10:50:58.706Z,68.80
2022-10-05T10:53:40.404Z,68.55
2022-10-05T10:56:30.107Z,67.03
2022-10-05T10:59:05.703Z,66.33
2022-10-05T11:01:39.792Z,67.14
2022-10-05T11:04:06.409Z,67.44
2022-10-05T11:06:48.601Z,68.63
2022-10-05T11:09:44.260Z,68.56
2022-10-05T11:12:34.299Z,70.15
2022-10-05T11:15:05.043Z,69.55
2022-10-05T11:17:51.194Z,69.34
2022-10-05T11:20:28.127Z,69.08
2022-10-05T11:22:57.686Z,67.03
2022-10-05T11:25:44.399Z,66.95
2022-10-05T11:28:17.024Z,66.61
2022-10-05T11:31:02.347Z,66.64
2022-10-05T11:33:31.686Z,66.69
2022-10-05T11:36:20.417Z,66.94
2022-10-05T11:38:48.350Z,68.59
2022-10-05T11:41:33.879Z,68.88
2022-10-05T11:44:18.417Z,66.83
2022-10-05T11:47:01.277Z,64.96
2022-10-05T11:49:45.271Z,63.21
2022-10-05T11:52:14.754Z,62.77
2022-10-05T11:55:10.285Z,63.15
2022-10-05T11:57:45.729Z,63.27
2022-10-05T12:00:23.174Z,64.26
2022-10-05T12:02:56.011Z,65.09
2022-10-05T12:05:25.616Z,64.71
2022-10-05T12:07:54.972Z,65.27
2022-10-05T12:10:39.773Z,66.28
2022-10-05T12:13:19.343Z,66.84
2022-10-05T12:15:55.261Z,66.46
2022-10-05T12:18:31.407Z,66.03
2022-10-05T12:20:57.814Z,65.91
2022-10-05T12:23:57.075Z,67.58
2022-10-05T12:26:26.447Z,67.13
2022-10-05T12:28:56.798Z,64.66
2022-10-05T12:31:35.992Z,66.42
2022-10-05T12:34:22.802Z,67.81
2022-10-05T12:37:03.901Z,66.96
2022-10-05T12:39:31.064Z,65.92
2022-10-05T12:42:03.551Z,65.28
2022-10-05T12:44:43.307Z,65.74
2022-10-05T12:47:14.943Z,64.39
2022-10-05T12:49:41.264Z,65.30
2022-10-05T12:52:14.176Z,66.35
2022-10-05T12:54:46.291Z,67.15
2022-10-05T12:57:36.052Z,67.12
2022-10-05T13:00:05.660Z,68.64
2022-10-05T13:02:43.239Z,69.69
2022-10-05T13:05:09.564Z,70.28
2022-10-05T13:07:55.032Z,70.01
2022-10-05T13:10:44.415Z,70.09
2022-10-05T13:13:20.574Z,70.50
2022-10-05T13:15:54.321Z,70.33
2022-10-05T13:18:42.058Z,70.68
2022-10-05T13:21:26.875Z,70.43
2022-10-05T13:23:59.349Z,69.93
2022-10-05T13:26:39.516Z,70.07
2022-10-05T13:29:17.423Z,70.66
2022-10-05T13:31:49.277Z,70.24
2022-10-05T13:34:36.064Z,70.64
2022-10-05T13:37:02.443Z,70.43
2022-10-05T13:39:34.989Z,70.43
2022-10-05T13:42:09.636Z,71.13
2022-10-05T13:45:02.789Z,70.85
2022-10-05T13:47:39.074Z,70.87
2022-10-05T13:50:17.839Z,70.70
2022-10-05T13:52:53.428Z,71.32
2022-10-05T13:55:22.881Z,71.47
2022-10-05T13:58:08.350Z,71.73
2022-10-05T14:00:41.200Z,71.57
2022-10-05T14:03:23.231Z,71.13
2022-10-05T14:05:57.497Z,71.39
2022-10-05T14:08:33.152Z,71.40
2022-10-05T14:10:59.837Z,71.18
2022-10-05T14:13:43.689Z,70.38
2022-10-05T14:16:13.004Z,70.26
2022-10-05T14:18:50.914Z,70.05
2022-10-05T14:21:22.902Z,70.69
2022-10-05T14:23:50.031Z,70.57
2022-10-05T14:26:17.664Z,70.15
2022-10-05T14:28:56.333Z,69.67
2022-10-05T14:31:34.941Z,69.29
2022-10-05T14:34:26.874Z,67.62
2022-10-05T14:37:18.256Z,68.43
2022-10-05T14:39:46.162Z,68.96
2022-10-05T14:42:15.225Z,67.95
2022-10-05T14:44:41.891Z,68.62
2022-10-05T14:47:20.228Z,68.48
2022-10-05T14:50:10.651Z,69.09
2022-10-05T14:52:38.064Z,69.50
2022-10-05T14:55:17.791Z,69.75
2022-10-05T14:57:44.525Z,69.99
2022-10-05T15:00:11.648Z,70.19
2022-10-05T15:02:56.606Z,69.73
2022-10-05T15:05:26.792Z,70.43
2022-10-05T15:07:57.260Z,70.73
2022-10-05T15:10:36.514Z,70.44
2022-10-05T15:13:29.319Z,70.51
2022-10-05T15:15:57.821Z,70.91
2022-10-05T15:18:31.768Z,70.87
2022-10-05T15:21:14.031Z,71.28
2022-10-05T15:23:42.926Z,71.29
2022-10-05T15:26:18.525Z,71.71
2022-10-05T15:28:55.006Z,72.41
2022-10-05T15:31:27.649Z,73.23
2022-10-05T15:34:02.335Z,73.44
2022-10-05T15:36:28.886Z,74.19
2022-10-05T15:39:07.041Z,74.16
2022-10-05T15:41:33.474Z,74.61
2022-10-05T15:44:09.487Z,75.07
2022-10-05T15:46:50.532Z,74.76
2022-10-05T15:49:19.779Z,75.73
2022-10-05T15:52:01.413Z,75.58
2022-10-05T15:54:53.368Z,76.38
2022-10-05T15:57:34.037Z,77.02
2022-10-05T16:00:05.500Z,77.56
2022-10-05T16:02:37.842Z,77.86
2022-10-05T16:05:44.807Z,78.51
2022-10-05T16:08:39.623Z,79.12
2022-10-05T16:11:10.546Z,79.17
2022-10-05T16:13:47.250Z,79.07
2022-10-05T16:16:15.625Z,79.70
2022-10-05T16:19:01.203Z,80.10
2022-10-05T16:21:44.003Z,80.79
2022-10-05T16:24:10.674Z,80.83
2022-10-05T16:26:39.911Z,81.26
2022-10-05T16:29:16.645Z,81.09
2022-10-05T16:31:43.898Z,81.60
2022-10-05T16:34:29.215Z,81.70
2022-10-05T16:37:04.698Z,81.91
2022-10-05T16:39:50.057Z,82.52
2022-10-05T16:42:42.022Z,82.62
2022-10-05T16:45:17.631Z,82.93
2022-10-05T16:48:02.530Z,83.12
2022-10-05T16:50:44.118Z,83.62
2022-10-05T16:53:40.250Z,84.00
2022-10-05T16:56:11.091Z,83.70
2022-10-05T16:58:40.593Z,83.86
2022-10-05T17:01:10.751Z,84.43
2022-10-05T17:03:40.061Z,84.61
2022-10-05T17:06:09.321Z,85.12
2022-10-05T17:08:41.749Z,85.28
2022-10-05T17:11:20.942Z,85.34
2022-10-05T17:14:06.258Z,85.74
2022-10-05T17:16:33.205Z,85.88
2022-10-05T17:19:00.659Z,86.10
2022-10-05T17:21:32.463Z,86.07
2022-10-05T17:24:12.396Z,86.34
2022-10-05T17:26:59.484Z,86.75
2022-10-05T17:29:30.853Z,86.38
2022-10-05T17:32:06.405Z,86.65
2022-10-05T17:34:36.773Z,87.29
2022-10-05T17:37:22.010Z,87.31
2022-10-05T17:39:50.794Z,87.27
2022-10-05T17:42:43.667Z,87.59
2022-10-05T17:45:10.897Z,87.69
2022-10-05T17:47:56.195Z,87.61
2022-10-05T17:51:01.711Z,87.49
2022-10-05T17:53:53.583Z,87.82
2022-10-05T17:56:20.912Z,87.92
2022-10-05T17:58:47.291Z,87.96
2022-10-05T18:01:17.129Z,87.89
2022-10-05T18:03:44.605Z,88.19
2022-10-05T18:06:26.488Z,88.06
2022-10-05T18:09:11.646Z,87.98
2022-10-05T18:11:40.277Z,88.29
2022-10-05T18:14:20.647Z,88.23
2022-10-05T18:16:56.251Z,88.10
2022-10-05T18:19:23.275Z,88.29
2022-10-05T18:22:03.402Z,88.47
2022-10-05T18:24:36.871Z,88.35
2022-10-05T18:27:12.338Z,88.25
2022-10-05T18:30:00.271Z,88.42
2022-10-05T18:32:26.677Z,88.36
2022-10-05T18:35:02.136Z,88.61
2022-10-05T18:37:42.541Z,88.99
2022-10-05T18:40:21.278Z,89.23
2022-10-05T18:42:56.345Z,89.12
2022-10-05T18:45:31.984Z,89.49
2022-10-05T18:48:06.748Z,89.85
2022-10-05T18:50:51.831Z,90.60
2022-10-05T18:53:25.368Z,90.72
2022-10-05T18:56:03.642Z,90.90
2022-10-05T18:58:53.210Z,91.81
2022-10-05T19:01:34.705Z,92.20
2022-10-05T19:04:22.310Z,92.41
2022-10-05T19:07:04.924Z,92.71
2022-10-05T19:09:50.962Z,92.99
2022-10-05T19:12:17.451Z,93.16
2022-10-05T19:14:46.935Z,93.23
2022-10-05T19:17:24.114Z,93.47
2022-10-05T19:20:02.850Z,93.30
2022-10-05T19:22:40.267Z,93.65
2022-10-05T19:25:13.761Z,93.05
2022-10-05T19:27:55.302Z,93.51
2022-10-05T19:30:25.157Z,93.48
2022-10-05T19:32:54.538Z,93.68
2022-10-05T19:35:33.108Z,93.11
2022-10-05T19:38:00.611Z,92.93
2022-10-05T19:40:53.044Z,92.90
2022-10-05T19:43:38.211Z,92.69
2022-10-05T19:46:23.555Z,92.70
2022-10-05T19:48:52.370Z,91.76
2022-10-05T19:51:30.683Z,91.13
2022-10-05T19:54:13.664Z,91.25
2022-10-05T19:56:49.599Z,91.13
2022-10-05T19:59:20.159Z,90.99
2022-10-05T20:01:50.195Z,91.27
2022-10-05T20:04:37.046Z,90.72
2022-10-05T20:07:04.027Z,90.80
2022-10-05T20:09:48.329Z,90.93
2022-10-05T20:12:15.844Z,90.97
2022-10-05T20:15:01.054Z,90.98
2022-10-05T20:17:46.927Z,90.75
2022-10-05T20:20:22.830Z,90.69
2022-10-05T20:22:49.225Z,90.83
2022-10-05T20:25:18.630Z,90.74
2022-10-05T20:27:49.792Z,90.70
2022-10-05T20:30:18.353Z,90.75
2022-10-05T20:32:58.086Z,90.59
2022-10-05T20:35:27.807Z,90.92
2022-10-05T20:37:56.385Z,90.63
2022-10-05T20:40:22.797Z,90.90
2022-10-05T20:42:50.337Z,90.84
2022-10-05T20:45:17.327Z,91.60
2022-10-05T20:47:46.558Z,91.82
2022-10-05T20:50:13.421Z,91.99
2022-10-05T20:52:40.057Z,92.13
2022-10-05T20:55:07.768Z,92.52
2022-10-05T20:57:34.374Z,92.87
2022-10-05T21:00:00.865Z,92.83
2022-10-05T21:02:27.269Z,92.82
2022-10-05T21:04:54.268Z,92.98
2022-10-05T21:07:21.698Z,92.65
2022-10-05T21:09:48.110Z,92.93
2022-10-05T21:12:16.386Z,93.16
2022-10-05T21:14:43.215Z,93.54
2022-10-05T21:17:10.466Z,93.52
2022-10-05T21:19:40.624Z,93.08
2022-10-05T21:22:08.123Z,92.92
2022-10-05T21:24:35.952Z,92.04
2022-10-05T21:27:02.714Z,92.12
2022-10-05T21:29:29.580Z,91.79
2022-10-05T21:31:56.425Z,90.99
2022-10-05T21:34:22.939Z,90.96
2022-10-05T21:36:49.425Z,90.19
2022-10-05T21:39:16.036Z,90.25
2022-10-05T21:41:42.420Z,89.74
2022-10-05T21:44:08.856Z,90.07
2022-10-05T21:46:36.136Z,90.02
2022-10-05T21:49:02.670Z,89.63
2022-10-05T21:51:29.156Z,89.89
2022-10-05T21:53:58.181Z,89.42
2022-10-05T21:56:27.901Z,89.00
2022-10-05T21:58:54.489Z,89.22
2022-10-05T22:01:22.871Z,89.38
2022-10-05T22:03:49.631Z,89.73
2022-10-05T22:06:16.179Z,90.04
2022-10-05T22:08:42.555Z,90.94
2022-10-05T22:11:10.815Z,91.68
2022-10-05T22:13:44.950Z,92.20
2022-10-05T22:16:11.939Z,92.85
2022-10-05T22:18:38.718Z,92.65
2022-10-05T22:21:06.290Z,93.07
2022-10-05T22:23:33.985Z,92.96
2022-10-05T22:26:00.662Z,94.28
2022-10-05T22:28:27.406Z,94.64
2022-10-05T22:30:54.331Z,95.45
2022-10-05T22:33:20.782Z,96.28
2022-10-05T22:35:47.191Z,97.02
2022-10-05T22:38:13.771Z,97.04
2022-10-05T22:40:40.286Z,97.28
2022-10-05T22:43:06.745Z,98.06
2022-10-05T22:45:33.353Z,98.56
2022-10-05T22:47:59.890Z,98.97
2022-10-05T22:50:26.300Z,100.00
2022-10-05T22:52:52.782Z,100.00
2022-10-05T22:55:19.277Z,100.00
2022-10-05T22:57:45.955Z,100.00
2022-10-05T23:00:12.862Z,97.11
2022-10-05T23:02:40.725Z,95.07
2022-10-05T23:05:08.418Z,93.61
2022-10-05T23:07:42.227Z,92.07
2022-10-05T23:10:10.185Z,90.95
2022-10-05T23:12:36.628Z,90.14
2022-10-05T23:15:03.989Z,88.29
2022-10-05T23:17:30.977Z,86.86
2022-10-05T23:19:57.949Z,86.20
2022-10-05T23:22:25.393Z,85.35
2022-10-05T23:24:52.433Z,85.07
2022-10-05T23:27:19.425Z,85.08
2022-10-05T23:29:45.839Z,84.57
2022-10-05T23:32:12.249Z,84.19
2022-10-05T23:34:38.754Z,83.99
2022-10-05T23:37:05.213Z,84.14
2022-10-05T23:39:31.718Z,83.98
2022-10-05T23:41:59.986Z,83.78
2022-10-05T23:44:26.701Z,83.99
2022-10-05T23:46:53.148Z,84.07
2022-10-05T23:49:19.539Z,83.73
2022-10-05T23:51:46.004Z,84.19
2022-10-05T23:54:12.383Z,84.26
2022-10-05T23:56:38.846Z,84.45
2022-10-05T23:59:05.277Z,84.46
